sensor_id;sensor_type;location;lat;lon;timestamp;P1;durP1;ratioP1;P2;durP2;ratioP2
80384;SDS011;69702;44.618;33.604;2023-06-14T00:02:40;17.67;;;12.07;;
80384;SDS011;69702;44.618;33.604;2023-06-14T00:06:04;18.20;;;11.27;;
80384;SDS011;69702;44.618;33.604;2023-06-14T00:09:29;15.90;;;11.63;;
80384;SDS011;69702;44.618;33.604;2023-06-14T00:12:56;19.35;;;12.80;;
80384;SDS011;69702;44.618;33.604;2023-06-14T00:16:21;19.15;;;13.65;;
80384;SDS011;69702;44.618;33.604;2023-06-14T00:19:46;25.53;;;13.83;;
80384;SDS011;69702;44.618;33.604;2023-06-14T00:23:11;19.15;;;12.75;;
80384;SDS011;69702;44.618;33.604;2023-06-14T00:26:36;17.40;;;12.88;;
80384;SDS011;69702;44.618;33.604;2023-06-14T00:30:00;18.33;;;13.13;;
80384;SDS011;69702;44.618;33.604;2023-06-14T00:33:27;20.05;;;12.45;;
80384;SDS011;69702;44.618;33.604;2023-06-14T00:36:52;20.53;;;13.27;;
80384;SDS011;69702;44.618;33.604;2023-06-14T00:40:16;19.80;;;12.93;;
80384;SDS011;69702;44.618;33.604;2023-06-14T00:43:42;17.88;;;12.23;;
80384;SDS011;69702;44.618;33.604;2023-06-14T00:47:06;15.88;;;10.98;;
80384;SDS011;69702;44.618;33.604;2023-06-14T00:50:32;17.83;;;12.00;;
80384;SDS011;69702;44.618;33.604;2023-06-14T00:53:59;15.00;;;10.27;;
80384;SDS011;69702;44.618;33.604;2023-06-14T00:57:23;15.90;;;9.90;;
80384;SDS011;69702;44.618;33.604;2023-06-14T01:00:48;15.98;;;10.57;;
80384;SDS011;69702;44.618;33.604;2023-06-14T01:04:13;14.38;;;9.85;;
80384;SDS011;69702;44.618;33.604;2023-06-14T01:07:53;15.70;;;10.98;;
80384;SDS011;69702;44.618;33.604;2023-06-14T01:11:28;12.73;;;9.60;;
80384;SDS011;69702;44.618;33.604;2023-06-14T01:14:59;14.50;;;9.38;;
80384;SDS011;69702;44.618;33.604;2023-06-14T01:18:25;16.27;;;10.85;;
80384;SDS011;69702;44.618;33.604;2023-06-14T01:21:56;13.60;;;9.68;;
80384;SDS011;69702;44.618;33.604;2023-06-14T01:25:21;13.13;;;9.40;;
80384;SDS011;69702;44.618;33.604;2023-06-14T01:28:51;15.67;;;9.03;;
80384;SDS011;69702;44.618;33.604;2023-06-14T01:32:17;15.82;;;9.80;;
80384;SDS011;69702;44.618;33.604;2023-06-14T01:35:47;16.42;;;9.98;;
80384;SDS011;69702;44.618;33.604;2023-06-14T01:39:12;13.27;;;9.45;;
80384;SDS011;69702;44.618;33.604;2023-06-14T01:42:38;16.15;;;10.15;;
80384;SDS011;69702;44.618;33.604;2023-06-14T01:46:04;16.10;;;10.63;;
80384;SDS011;69702;44.618;33.604;2023-06-14T01:49:32;19.05;;;9.43;;
80384;SDS011;69702;44.618;33.604;2023-06-14T01:52:57;15.68;;;10.70;;
80384;SDS011;69702;44.618;33.604;2023-06-14T01:56:22;13.98;;;9.60;;
80384;SDS011;69702;44.618;33.604;2023-06-14T01:59:47;13.90;;;9.50;;
80384;SDS011;69702;44.618;33.604;2023-06-14T02:03:13;13.93;;;9.10;;
80384;SDS011;69702;44.618;33.604;2023-06-14T02:06:37;14.52;;;9.77;;
80384;SDS011;69702;44.618;33.604;2023-06-14T02:10:02;13.77;;;9.55;;
80384;SDS011;69702;44.618;33.604;2023-06-14T02:13:27;12.65;;;9.40;;
80384;SDS011;69702;44.618;33.604;2023-06-14T02:16:52;14.52;;;9.60;;
80384;SDS011;69702;44.618;33.604;2023-06-14T02:20:17;15.13;;;8.40;;
80384;SDS011;69702;44.618;33.604;2023-06-14T02:23:45;13.63;;;8.55;;
80384;SDS011;69702;44.618;33.604;2023-06-14T02:27:22;11.43;;;8.20;;
80384;SDS011;69702;44.618;33.604;2023-06-14T02:31:01;12.18;;;8.43;;
80384;SDS011;69702;44.618;33.604;2023-06-14T02:34:38;11.85;;;9.00;;
80384;SDS011;69702;44.618;33.604;2023-06-14T02:38:03;11.33;;;8.67;;
80384;SDS011;69702;44.618;33.604;2023-06-14T02:41:27;13.25;;;8.43;;
80384;SDS011;69702;44.618;33.604;2023-06-14T02:44:52;13.75;;;8.63;;
80384;SDS011;69702;44.618;33.604;2023-06-14T02:48:16;12.82;;;8.45;;
80384;SDS011;69702;44.618;33.604;2023-06-14T02:51:41;12.30;;;9.27;;
80384;SDS011;69702;44.618;33.604;2023-06-14T02:55:08;11.43;;;8.20;;
80384;SDS011;69702;44.618;33.604;2023-06-14T02:58:32;12.60;;;8.52;;
80384;SDS011;69702;44.618;33.604;2023-06-14T03:01:57;13.80;;;8.10;;
80384;SDS011;69702;44.618;33.604;2023-06-14T03:05:22;12.10;;;7.68;;
80384;SDS011;69702;44.618;33.604;2023-06-14T03:08:51;11.82;;;8.93;;
80384;SDS011;69702;44.618;33.604;2023-06-14T03:12:16;11.70;;;8.73;;
80384;SDS011;69702;44.618;33.604;2023-06-14T03:15:48;12.45;;;8.90;;
80384;SDS011;69702;44.618;33.604;2023-06-14T03:19:16;10.77;;;7.60;;
80384;SDS011;69702;44.618;33.604;2023-06-14T03:22:41;11.10;;;9.20;;
80384;SDS011;69702;44.618;33.604;2023-06-14T03:26:06;15.60;;;8.60;;
80384;SDS011;69702;44.618;33.604;2023-06-14T03:29:31;11.57;;;7.57;;
80384;SDS011;69702;44.618;33.604;2023-06-14T03:32:56;13.27;;;7.95;;
80384;SDS011;69702;44.618;33.604;2023-06-14T03:36:22;12.13;;;7.78;;
80384;SDS011;69702;44.618;33.604;2023-06-14T03:39:47;10.32;;;8.25;;
80384;SDS011;69702;44.618;33.604;2023-06-14T03:43:12;11.82;;;8.85;;
80384;SDS011;69702;44.618;33.604;2023-06-14T03:46:36;11.27;;;7.17;;
80384;SDS011;69702;44.618;33.604;2023-06-14T03:50:02;9.60;;;7.43;;
80384;SDS011;69702;44.618;33.604;2023-06-14T03:53:29;11.15;;;7.72;;
80384;SDS011;69702;44.618;33.604;2023-06-14T03:56:55;10.70;;;8.57;;
80384;SDS011;69702;44.618;33.604;2023-06-14T04:00:19;10.68;;;8.35;;
80384;SDS011;69702;44.618;33.604;2023-06-14T04:03:44;11.83;;;7.77;;
80384;SDS011;69702;44.618;33.604;2023-06-14T04:07:12;10.13;;;6.95;;
80384;SDS011;69702;44.618;33.604;2023-06-14T04:10:42;10.48;;;8.35;;
80384;SDS011;69702;44.618;33.604;2023-06-14T04:14:06;10.98;;;7.80;;
80384;SDS011;69702;44.618;33.604;2023-06-14T04:17:32;10.07;;;7.97;;
80384;SDS011;69702;44.618;33.604;2023-06-14T04:20:56;11.43;;;7.57;;
80384;SDS011;69702;44.618;33.604;2023-06-14T04:24:21;13.05;;;7.90;;
80384;SDS011;69702;44.618;33.604;2023-06-14T04:27:47;11.13;;;7.90;;
80384;SDS011;69702;44.618;33.604;2023-06-14T04:31:12;10.98;;;7.72;;
80384;SDS011;69702;44.618;33.604;2023-06-14T04:34:39;13.32;;;8.63;;
80384;SDS011;69702;44.618;33.604;2023-06-14T04:38:04;9.40;;;7.17;;
80384;SDS011;69702;44.618;33.604;2023-06-14T04:41:30;12.05;;;7.50;;
80384;SDS011;69702;44.618;33.604;2023-06-14T04:44:57;11.65;;;8.23;;
80384;SDS011;69702;44.618;33.604;2023-06-14T04:48:22;10.75;;;8.27;;
80384;SDS011;69702;44.618;33.604;2023-06-14T04:51:48;10.05;;;6.88;;
80384;SDS011;69702;44.618;33.604;2023-06-14T04:55:17;11.17;;;6.90;;
80384;SDS011;69702;44.618;33.604;2023-06-14T04:58:43;11.85;;;7.18;;
80384;SDS011;69702;44.618;33.604;2023-06-14T05:02:10;12.25;;;8.23;;
80384;SDS011;69702;44.618;33.604;2023-06-14T05:05:42;9.88;;;7.00;;
80384;SDS011;69702;44.618;33.604;2023-06-14T05:09:07;10.07;;;7.32;;
80384;SDS011;69702;44.618;33.604;2023-06-14T05:12:31;9.97;;;7.20;;
80384;SDS011;69702;44.618;33.604;2023-06-14T05:16:02;11.25;;;7.03;;
80384;SDS011;69702;44.618;33.604;2023-06-14T05:19:31;10.85;;;7.38;;
80384;SDS011;69702;44.618;33.604;2023-06-14T05:23:03;11.20;;;6.82;;
80384;SDS011;69702;44.618;33.604;2023-06-14T05:26:28;11.32;;;7.22;;
80384;SDS011;69702;44.618;33.604;2023-06-14T05:29:52;9.20;;;6.60;;
80384;SDS011;69702;44.618;33.604;2023-06-14T05:33:17;13.32;;;7.40;;
80384;SDS011;69702;44.618;33.604;2023-06-14T05:36:41;9.27;;;7.13;;
80384;SDS011;69702;44.618;33.604;2023-06-14T05:40:06;10.32;;;7.20;;
80384;SDS011;69702;44.618;33.604;2023-06-14T05:43:31;12.48;;;7.93;;
80384;SDS011;69702;44.618;33.604;2023-06-14T05:46:58;11.80;;;8.27;;
80384;SDS011;69702;44.618;33.604;2023-06-14T05:50:22;13.07;;;7.72;;
80384;SDS011;69702;44.618;33.604;2023-06-14T05:53:47;13.57;;;8.65;;
80384;SDS011;69702;44.618;33.604;2023-06-14T05:57:13;10.07;;;7.35;;
80384;SDS011;69702;44.618;33.604;2023-06-14T06:00:39;10.30;;;7.30;;
80384;SDS011;69702;44.618;33.604;2023-06-14T06:04:05;10.63;;;7.23;;
80384;SDS011;69702;44.618;33.604;2023-06-14T06:07:34;10.30;;;7.55;;
80384;SDS011;69702;44.618;33.604;2023-06-14T06:10:58;10.30;;;8.13;;
80384;SDS011;69702;44.618;33.604;2023-06-14T06:14:22;11.23;;;7.28;;
80384;SDS011;69702;44.618;33.604;2023-06-14T06:17:47;10.63;;;6.88;;
80384;SDS011;69702;44.618;33.604;2023-06-14T06:21:11;8.87;;;6.90;;
80384;SDS011;69702;44.618;33.604;2023-06-14T06:24:36;8.85;;;6.65;;
80384;SDS011;69702;44.618;33.604;2023-06-14T06:28:00;11.38;;;7.15;;
80384;SDS011;69702;44.618;33.604;2023-06-14T06:31:25;9.75;;;6.68;;
80384;SDS011;69702;44.618;33.604;2023-06-14T06:34:50;8.50;;;6.25;;
80384;SDS011;69702;44.618;33.604;2023-06-14T06:38:15;9.60;;;6.40;;
80384;SDS011;69702;44.618;33.604;2023-06-14T06:41:40;9.73;;;6.82;;
80384;SDS011;69702;44.618;33.604;2023-06-14T06:45:05;9.45;;;7.45;;
80384;SDS011;69702;44.618;33.604;2023-06-14T06:48:30;9.50;;;6.57;;
80384;SDS011;69702;44.618;33.604;2023-06-14T06:52:01;7.97;;;6.60;;
80384;SDS011;69702;44.618;33.604;2023-06-14T06:55:26;7.57;;;6.07;;
80384;SDS011;69702;44.618;33.604;2023-06-14T06:58:51;9.55;;;6.85;;
80384;SDS011;69702;44.618;33.604;2023-06-14T07:02:16;7.38;;;5.90;;
80384;SDS011;69702;44.618;33.604;2023-06-14T07:05:40;7.45;;;4.47;;
80384;SDS011;69702;44.618;33.604;2023-06-14T07:09:05;6.43;;;4.65;;
80384;SDS011;69702;44.618;33.604;2023-06-14T07:12:31;8.17;;;4.97;;
80384;SDS011;69702;44.618;33.604;2023-06-14T07:15:59;7.40;;;4.78;;
80384;SDS011;69702;44.618;33.604;2023-06-14T07:19:24;7.00;;;4.45;;
80384;SDS011;69702;44.618;33.604;2023-06-14T07:22:50;6.88;;;4.30;;
80384;SDS011;69702;44.618;33.604;2023-06-14T07:26:14;9.27;;;4.82;;
80384;SDS011;69702;44.618;33.604;2023-06-14T07:29:39;7.40;;;4.73;;
80384;SDS011;69702;44.618;33.604;2023-06-14T07:33:03;11.18;;;8.02;;
80384;SDS011;69702;44.618;33.604;2023-06-14T07:36:27;8.98;;;5.45;;
80384;SDS011;69702;44.618;33.604;2023-06-14T07:39:52;7.07;;;4.70;;
80384;SDS011;69702;44.618;33.604;2023-06-14T07:43:16;7.28;;;5.18;;
80384;SDS011;69702;44.618;33.604;2023-06-14T07:46:41;8.13;;;5.53;;
80384;SDS011;69702;44.618;33.604;2023-06-14T07:50:06;7.30;;;6.05;;
80384;SDS011;69702;44.618;33.604;2023-06-14T07:53:34;10.43;;;8.10;;
80384;SDS011;69702;44.618;33.604;2023-06-14T07:56:58;8.88;;;5.82;;
80384;SDS011;69702;44.618;33.604;2023-06-14T08:00:23;9.18;;;6.13;;
80384;SDS011;69702;44.618;33.604;2023-06-14T08:03:49;8.83;;;5.30;;
80384;SDS011;69702;44.618;33.604;2023-06-14T08:07:14;7.40;;;5.45;;
80384;SDS011;69702;44.618;33.604;2023-06-14T08:10:39;8.35;;;5.78;;
80384;SDS011;69702;44.618;33.604;2023-06-14T08:14:08;7.68;;;5.60;;
80384;SDS011;69702;44.618;33.604;2023-06-14T08:17:33;9.27;;;5.68;;
80384;SDS011;69702;44.618;33.604;2023-06-14T08:20:57;8.33;;;6.10;;
80384;SDS011;69702;44.618;33.604;2023-06-14T08:24:30;8.10;;;5.00;;
80384;SDS011;69702;44.618;33.604;2023-06-14T08:27:55;9.85;;;6.20;;
80384;SDS011;69702;44.618;33.604;2023-06-14T08:31:20;8.95;;;6.25;;
80384;SDS011;69702;44.618;33.604;2023-06-14T08:34:45;7.68;;;5.85;;
80384;SDS011;69702;44.618;33.604;2023-06-14T08:38:10;7.67;;;4.83;;
80384;SDS011;69702;44.618;33.604;2023-06-14T08:41:34;7.47;;;4.65;;
80384;SDS011;69702;44.618;33.604;2023-06-14T08:45:00;6.45;;;4.20;;
80384;SDS011;69702;44.618;33.604;2023-06-14T08:48:28;5.95;;;4.53;;
80384;SDS011;69702;44.618;33.604;2023-06-14T08:51:55;7.00;;;4.75;;
80384;SDS011;69702;44.618;33.604;2023-06-14T08:55:23;7.40;;;4.50;;
80384;SDS011;69702;44.618;33.604;2023-06-14T08:58:48;7.53;;;5.20;;
80384;SDS011;69702;44.618;33.604;2023-06-14T09:02:19;6.90;;;4.65;;
80384;SDS011;69702;44.618;33.604;2023-06-14T09:05:46;6.25;;;4.40;;
80384;SDS011;69702;44.618;33.604;2023-06-14T09:09:11;6.80;;;5.35;;
80384;SDS011;69702;44.618;33.604;2023-06-14T09:12:39;8.20;;;5.10;;
80384;SDS011;69702;44.618;33.604;2023-06-14T09:16:04;9.52;;;6.05;;
80384;SDS011;69702;44.618;33.604;2023-06-14T09:19:29;9.07;;;6.00;;
80384;SDS011;69702;44.618;33.604;2023-06-14T09:22:55;10.55;;;6.25;;
80384;SDS011;69702;44.618;33.604;2023-06-14T09:26:20;8.55;;;6.35;;
80384;SDS011;69702;44.618;33.604;2023-06-14T09:29:44;7.20;;;5.90;;
80384;SDS011;69702;44.618;33.604;2023-06-14T09:33:09;8.13;;;6.35;;
80384;SDS011;69702;44.618;33.604;2023-06-14T09:36:33;8.15;;;5.97;;
80384;SDS011;69702;44.618;33.604;2023-06-14T09:39:58;8.00;;;5.40;;
80384;SDS011;69702;44.618;33.604;2023-06-14T09:43:23;7.10;;;5.95;;
80384;SDS011;69702;44.618;33.604;2023-06-14T09:46:50;8.53;;;5.37;;
80384;SDS011;69702;44.618;33.604;2023-06-14T09:50:15;7.65;;;5.75;;
80384;SDS011;69702;44.618;33.604;2023-06-14T09:53:40;7.72;;;5.07;;
80384;SDS011;69702;44.618;33.604;2023-06-14T09:57:08;6.55;;;5.10;;
80384;SDS011;69702;44.618;33.604;2023-06-14T10:00:35;7.60;;;5.80;;
80384;SDS011;69702;44.618;33.604;2023-06-14T10:04:02;7.90;;;5.10;;
80384;SDS011;69702;44.618;33.604;2023-06-14T10:11:05;7.53;;;5.47;;
80384;SDS011;69702;44.618;33.604;2023-06-14T10:14:30;7.80;;;5.82;;
80384;SDS011;69702;44.618;33.604;2023-06-14T10:18:08;10.10;;;5.95;;
80384;SDS011;69702;44.618;33.604;2023-06-14T10:25:45;8.77;;;6.60;;
80384;SDS011;69702;44.618;33.604;2023-06-14T10:29:17;8.95;;;6.88;;
80384;SDS011;69702;44.618;33.604;2023-06-14T10:37:12;9.65;;;6.70;;
80384;SDS011;69702;44.618;33.604;2023-06-14T10:40:37;10.13;;;7.70;;
80384;SDS011;69702;44.618;33.604;2023-06-14T10:47:36;9.75;;;7.53;;
80384;SDS011;69702;44.618;33.604;2023-06-14T10:51:05;12.00;;;9.45;;
80384;SDS011;69702;44.618;33.604;2023-06-14T10:54:32;12.73;;;10.25;;
80384;SDS011;69702;44.618;33.604;2023-06-14T10:57:56;14.13;;;10.20;;
80384;SDS011;69702;44.618;33.604;2023-06-14T11:01:28;13.10;;;9.70;;
80384;SDS011;69702;44.618;33.604;2023-06-14T11:05:03;14.23;;;11.50;;
80384;SDS011;69702;44.618;33.604;2023-06-14T11:12:03;13.48;;;10.88;;
80384;SDS011;69702;44.618;33.604;2023-06-14T11:15:29;13.47;;;10.27;;
80384;SDS011;69702;44.618;33.604;2023-06-14T11:18:53;18.17;;;13.57;;
80384;SDS011;69702;44.618;33.604;2023-06-14T11:22:38;15.07;;;11.90;;
80384;SDS011;69702;44.618;33.604;2023-06-14T11:26:03;15.43;;;12.32;;
80384;SDS011;69702;44.618;33.604;2023-06-14T11:29:28;15.57;;;13.32;;
80384;SDS011;69702;44.618;33.604;2023-06-14T11:32:54;17.13;;;12.57;;
80384;SDS011;69702;44.618;33.604;2023-06-14T11:36:20;15.82;;;13.38;;
80384;SDS011;69702;44.618;33.604;2023-06-14T11:39:45;18.15;;;13.65;;
80384;SDS011;69702;44.618;33.604;2023-06-14T11:43:09;18.02;;;12.27;;
80384;SDS011;69702;44.618;33.604;2023-06-14T11:46:34;13.40;;;11.07;;
80384;SDS011;69702;44.618;33.604;2023-06-14T11:49:59;15.87;;;10.87;;
80384;SDS011;69702;44.618;33.604;2023-06-14T11:53:23;15.18;;;11.73;;
80384;SDS011;69702;44.618;33.604;2023-06-14T11:56:48;14.23;;;10.52;;
80384;SDS011;69702;44.618;33.604;2023-06-14T12:00:12;15.68;;;11.40;;
80384;SDS011;69702;44.618;33.604;2023-06-14T12:03:47;15.73;;;12.30;;
80384;SDS011;69702;44.618;33.604;2023-06-14T12:07:15;15.23;;;12.30;;
80384;SDS011;69702;44.618;33.604;2023-06-14T12:10:44;15.68;;;11.60;;
80384;SDS011;69702;44.618;33.604;2023-06-14T12:14:09;13.90;;;11.30;;
80384;SDS011;69702;44.618;33.604;2023-06-14T12:17:35;15.18;;;11.80;;
80384;SDS011;69702;44.618;33.604;2023-06-14T12:21:00;14.57;;;11.52;;
80384;SDS011;69702;44.618;33.604;2023-06-14T12:24:28;14.93;;;10.40;;
80384;SDS011;69702;44.618;33.604;2023-06-14T12:27:57;13.90;;;10.43;;
80384;SDS011;69702;44.618;33.604;2023-06-14T12:31:21;14.90;;;10.68;;
80384;SDS011;69702;44.618;33.604;2023-06-14T12:34:45;12.30;;;10.00;;
80384;SDS011;69702;44.618;33.604;2023-06-14T12:38:11;12.57;;;9.40;;
80384;SDS011;69702;44.618;33.604;2023-06-14T12:41:36;12.23;;;7.90;;
80384;SDS011;69702;44.618;33.604;2023-06-14T12:45:00;11.57;;;7.40;;
80384;SDS011;69702;44.618;33.604;2023-06-14T12:48:25;9.70;;;6.68;;
80384;SDS011;69702;44.618;33.604;2023-06-14T12:51:50;9.52;;;6.20;;
80384;SDS011;69702;44.618;33.604;2023-06-14T12:55:15;9.57;;;6.97;;
80384;SDS011;69702;44.618;33.604;2023-06-14T12:58:41;10.67;;;8.03;;
80384;SDS011;69702;44.618;33.604;2023-06-14T13:02:12;11.20;;;7.32;;
80384;SDS011;69702;44.618;33.604;2023-06-14T13:05:37;10.88;;;8.20;;
80384;SDS011;69702;44.618;33.604;2023-06-14T13:09:02;14.88;;;11.32;;
80384;SDS011;69702;44.618;33.604;2023-06-14T13:12:29;13.18;;;9.82;;
80384;SDS011;69702;44.618;33.604;2023-06-14T13:15:53;11.23;;;7.53;;
80384;SDS011;69702;44.618;33.604;2023-06-14T13:19:18;11.27;;;7.50;;
80384;SDS011;69702;44.618;33.604;2023-06-14T13:22:42;14.45;;;10.73;;
80384;SDS011;69702;44.618;33.604;2023-06-14T13:26:06;11.52;;;7.90;;
80384;SDS011;69702;44.618;33.604;2023-06-14T13:29:32;8.32;;;6.82;;
80384;SDS011;69702;44.618;33.604;2023-06-14T13:32:57;9.27;;;6.57;;
80384;SDS011;69702;44.618;33.604;2023-06-14T13:36:21;10.73;;;8.38;;
80384;SDS011;69702;44.618;33.604;2023-06-14T13:39:46;10.25;;;7.22;;
80384;SDS011;69702;44.618;33.604;2023-06-14T13:43:10;10.25;;;7.03;;
80384;SDS011;69702;44.618;33.604;2023-06-14T13:46:39;12.93;;;8.05;;
80384;SDS011;69702;44.618;33.604;2023-06-14T13:50:04;10.20;;;6.67;;
80384;SDS011;69702;44.618;33.604;2023-06-14T13:53:29;10.77;;;7.18;;
80384;SDS011;69702;44.618;33.604;2023-06-14T13:56:54;12.25;;;7.75;;
80384;SDS011;69702;44.618;33.604;2023-06-14T14:00:18;12.85;;;8.02;;
80384;SDS011;69702;44.618;33.604;2023-06-14T14:03:46;12.35;;;9.05;;
80384;SDS011;69702;44.618;33.604;2023-06-14T14:07:17;11.23;;;8.07;;
80384;SDS011;69702;44.618;33.604;2023-06-14T14:10:41;12.20;;;8.65;;
80384;SDS011;69702;44.618;33.604;2023-06-14T14:14:07;12.55;;;9.25;;
80384;SDS011;69702;44.618;33.604;2023-06-14T14:17:38;11.90;;;9.18;;
80384;SDS011;69702;44.618;33.604;2023-06-14T14:21:03;12.98;;;9.55;;
80384;SDS011;69702;44.618;33.604;2023-06-14T14:24:28;13.43;;;8.97;;
80384;SDS011;69702;44.618;33.604;2023-06-14T14:27:52;13.15;;;9.70;;
80384;SDS011;69702;44.618;33.604;2023-06-14T14:31:17;14.40;;;9.23;;
80384;SDS011;69702;44.618;33.604;2023-06-14T14:34:42;13.80;;;9.40;;
80384;SDS011;69702;44.618;33.604;2023-06-14T14:38:11;14.45;;;9.10;;
80384;SDS011;69702;44.618;33.604;2023-06-14T14:41:36;14.17;;;9.40;;
80384;SDS011;69702;44.618;33.604;2023-06-14T14:45:01;12.60;;;8.93;;
80384;SDS011;69702;44.618;33.604;2023-06-14T14:48:25;14.02;;;9.57;;
80384;SDS011;69702;44.618;33.604;2023-06-14T14:51:50;14.05;;;10.27;;
80384;SDS011;69702;44.618;33.604;2023-06-14T14:55:14;16.20;;;9.52;;
80384;SDS011;69702;44.618;33.604;2023-06-14T14:58:39;14.80;;;9.53;;
80384;SDS011;69702;44.618;33.604;2023-06-14T15:02:03;14.82;;;9.98;;
80384;SDS011;69702;44.618;33.604;2023-06-14T15:05:28;15.30;;;9.73;;
80384;SDS011;69702;44.618;33.604;2023-06-14T15:08:53;17.00;;;10.40;;
80384;SDS011;69702;44.618;33.604;2023-06-14T15:12:19;14.95;;;10.35;;
80384;SDS011;69702;44.618;33.604;2023-06-14T15:15:44;22.93;;;13.57;;
80384;SDS011;69702;44.618;33.604;2023-06-14T15:19:08;14.55;;;10.85;;
80384;SDS011;69702;44.618;33.604;2023-06-14T15:22:33;15.57;;;10.65;;
80384;SDS011;69702;44.618;33.604;2023-06-14T15:25:57;14.23;;;10.23;;
80384;SDS011;69702;44.618;33.604;2023-06-14T15:29:21;14.15;;;10.43;;
80384;SDS011;69702;44.618;33.604;2023-06-14T15:32:46;12.43;;;9.10;;
80384;SDS011;69702;44.618;33.604;2023-06-14T15:36:11;14.50;;;9.13;;
80384;SDS011;69702;44.618;33.604;2023-06-14T15:39:35;15.15;;;9.85;;
80384;SDS011;69702;44.618;33.604;2023-06-14T15:43:00;15.00;;;10.13;;
80384;SDS011;69702;44.618;33.604;2023-06-14T15:46:24;13.48;;;10.07;;
80384;SDS011;69702;44.618;33.604;2023-06-14T15:49:49;17.13;;;9.57;;
80384;SDS011;69702;44.618;33.604;2023-06-14T15:53:14;12.52;;;8.40;;
80384;SDS011;69702;44.618;33.604;2023-06-14T15:56:39;15.13;;;10.57;;
80384;SDS011;69702;44.618;33.604;2023-06-14T16:00:04;13.55;;;8.52;;
80384;SDS011;69702;44.618;33.604;2023-06-14T16:03:28;14.20;;;8.88;;
80384;SDS011;69702;44.618;33.604;2023-06-14T16:06:53;15.17;;;9.60;;
80384;SDS011;69702;44.618;33.604;2023-06-14T16:10:18;13.50;;;9.18;;
80384;SDS011;69702;44.618;33.604;2023-06-14T16:13:42;16.55;;;9.68;;
80384;SDS011;69702;44.618;33.604;2023-06-14T16:17:07;15.50;;;9.40;;
80384;SDS011;69702;44.618;33.604;2023-06-14T16:20:31;15.15;;;8.93;;
80384;SDS011;69702;44.618;33.604;2023-06-14T16:24:00;14.97;;;9.37;;
80384;SDS011;69702;44.618;33.604;2023-06-14T16:27:24;15.50;;;8.55;;
80384;SDS011;69702;44.618;33.604;2023-06-14T16:30:49;14.77;;;8.75;;
80384;SDS011;69702;44.618;33.604;2023-06-14T16:34:14;14.25;;;8.48;;
80384;SDS011;69702;44.618;33.604;2023-06-14T16:37:38;15.80;;;9.02;;
80384;SDS011;69702;44.618;33.604;2023-06-14T16:41:02;11.17;;;7.90;;
80384;SDS011;69702;44.618;33.604;2023-06-14T16:44:27;12.98;;;9.02;;
80384;SDS011;69702;44.618;33.604;2023-06-14T16:47:52;13.95;;;8.88;;
80384;SDS011;69702;44.618;33.604;2023-06-14T16:51:16;14.40;;;9.07;;
80384;SDS011;69702;44.618;33.604;2023-06-14T16:54:41;12.80;;;8.63;;
80384;SDS011;69702;44.618;33.604;2023-06-14T16:58:05;13.93;;;9.20;;
80384;SDS011;69702;44.618;33.604;2023-06-14T17:01:30;14.88;;;10.02;;
80384;SDS011;69702;44.618;33.604;2023-06-14T17:04:55;16.27;;;10.88;;
80384;SDS011;69702;44.618;33.604;2023-06-14T17:08:23;15.45;;;10.63;;
80384;SDS011;69702;44.618;33.604;2023-06-14T17:11:47;17.67;;;12.65;;
80384;SDS011;69702;44.618;33.604;2023-06-14T17:15:12;17.23;;;12.37;;
80384;SDS011;69702;44.618;33.604;2023-06-14T17:18:37;18.75;;;12.55;;
80384;SDS011;69702;44.618;33.604;2023-06-14T17:22:02;18.77;;;13.35;;
80384;SDS011;69702;44.618;33.604;2023-06-14T17:25:27;20.42;;;14.15;;
80384;SDS011;69702;44.618;33.604;2023-06-14T17:28:53;21.83;;;13.68;;
80384;SDS011;69702;44.618;33.604;2023-06-14T17:32:18;21.93;;;13.20;;
80384;SDS011;69702;44.618;33.604;2023-06-14T17:35:43;18.75;;;13.40;;
80384;SDS011;69702;44.618;33.604;2023-06-14T17:39:09;22.85;;;15.13;;
80384;SDS011;69702;44.618;33.604;2023-06-14T17:42:34;22.67;;;13.30;;
80384;SDS011;69702;44.618;33.604;2023-06-14T17:46:00;18.88;;;12.95;;
80384;SDS011;69702;44.618;33.604;2023-06-14T17:49:24;21.30;;;13.00;;
80384;SDS011;69702;44.618;33.604;2023-06-14T17:52:48;20.85;;;14.93;;
80384;SDS011;69702;44.618;33.604;2023-06-14T17:56:13;23.95;;;15.93;;
80384;SDS011;69702;44.618;33.604;2023-06-14T17:59:37;23.98;;;13.95;;
80384;SDS011;69702;44.618;33.604;2023-06-14T18:03:02;19.45;;;13.32;;
80384;SDS011;69702;44.618;33.604;2023-06-14T18:06:26;19.40;;;12.60;;
80384;SDS011;69702;44.618;33.604;2023-06-14T18:09:52;23.08;;;14.07;;
80384;SDS011;69702;44.618;33.604;2023-06-14T18:13:16;22.08;;;14.02;;
80384;SDS011;69702;44.618;33.604;2023-06-14T18:16:41;22.42;;;14.80;;
80384;SDS011;69702;44.618;33.604;2023-06-14T18:20:06;22.13;;;13.30;;
80384;SDS011;69702;44.618;33.604;2023-06-14T18:23:31;25.60;;;14.07;;
80384;SDS011;69702;44.618;33.604;2023-06-14T18:26:55;24.33;;;14.88;;
80384;SDS011;69702;44.618;33.604;2023-06-14T18:30:20;20.00;;;13.20;;
80384;SDS011;69702;44.618;33.604;2023-06-14T18:33:45;17.95;;;12.52;;
80384;SDS011;69702;44.618;33.604;2023-06-14T18:37:10;20.80;;;12.30;;
80384;SDS011;69702;44.618;33.604;2023-06-14T18:40:34;22.50;;;11.37;;
80384;SDS011;69702;44.618;33.604;2023-06-14T18:43:59;28.08;;;17.38;;
80384;SDS011;69702;44.618;33.604;2023-06-14T18:47:23;20.45;;;13.52;;
80384;SDS011;69702;44.618;33.604;2023-06-14T18:50:47;18.65;;;12.10;;
80384;SDS011;69702;44.618;33.604;2023-06-14T18:54:12;18.90;;;11.88;;
80384;SDS011;69702;44.618;33.604;2023-06-14T18:57:36;18.37;;;12.33;;
80384;SDS011;69702;44.618;33.604;2023-06-14T19:01:01;20.45;;;11.70;;
80384;SDS011;69702;44.618;33.604;2023-06-14T19:04:25;19.92;;;11.02;;
80384;SDS011;69702;44.618;33.604;2023-06-14T19:07:50;20.67;;;11.55;;
80384;SDS011;69702;44.618;33.604;2023-06-14T19:11:14;17.77;;;11.80;;
80384;SDS011;69702;44.618;33.604;2023-06-14T19:14:39;19.47;;;12.00;;
80384;SDS011;69702;44.618;33.604;2023-06-14T19:18:03;19.65;;;11.85;;
80384;SDS011;69702;44.618;33.604;2023-06-14T19:21:28;21.70;;;11.73;;
80384;SDS011;69702;44.618;33.604;2023-06-14T19:24:52;22.58;;;11.68;;
80384;SDS011;69702;44.618;33.604;2023-06-14T19:28:17;19.60;;;12.40;;
80384;SDS011;69702;44.618;33.604;2023-06-14T19:31:41;20.50;;;11.20;;
80384;SDS011;69702;44.618;33.604;2023-06-14T19:35:09;17.10;;;10.85;;
80384;SDS011;69702;44.618;33.604;2023-06-14T19:38:34;22.65;;;11.82;;
80384;SDS011;69702;44.618;33.604;2023-06-14T19:41:58;20.33;;;11.70;;
80384;SDS011;69702;44.618;33.604;2023-06-14T19:45:23;16.92;;;11.57;;
80384;SDS011;69702;44.618;33.604;2023-06-14T19:48:50;18.40;;;11.50;;
80384;SDS011;69702;44.618;33.604;2023-06-14T19:52:15;19.65;;;10.82;;
80384;SDS011;69702;44.618;33.604;2023-06-14T19:55:40;16.15;;;9.48;;
80384;SDS011;69702;44.618;33.604;2023-06-14T19:59:04;17.35;;;9.38;;
80384;SDS011;69702;44.618;33.604;2023-06-14T20:02:34;17.98;;;10.35;;
80384;SDS011;69702;44.618;33.604;2023-06-14T20:05:58;17.87;;;11.23;;
80384;SDS011;69702;44.618;33.604;2023-06-14T20:09:25;17.27;;;11.68;;
80384;SDS011;69702;44.618;33.604;2023-06-14T20:12:49;17.35;;;10.80;;
80384;SDS011;69702;44.618;33.604;2023-06-14T20:16:14;19.70;;;10.73;;
80384;SDS011;69702;44.618;33.604;2023-06-14T20:19:38;15.80;;;10.45;;
80384;SDS011;69702;44.618;33.604;2023-06-14T20:23:09;18.43;;;11.70;;